Emma Janneke — ZDHK8 — position and weather

sailwx.info

Track history (hours):
 
Tides and Currents Weather Stations Pressure Air Temp Water Temp Dewpoint Dewpoint Depression Visibility Wind Speed Wind Dir Waves Ship Positions

Emma Janneke

Last reported at 2017-Dec-14 01:27 UTC. Time now 2017-Dec-17 00:30 UTC.
Position N 39°28' W 009°45'.

Length 115 m; draft 4.8 m.

Type: Ship. MMSI: 236330000.

Date/timePositionNaut miles runAvg speedWind from/ knotsBaromVisibWave heightAir tempDewpointWater temp
2017-Dec-14 01:27N 39°28' W 009°45'510.7
2017-Dec-14 01:00N 39°24' W 009°46'510.8
2017-Dec-14 00:30N 39°18' W 009°48'510.9
2017-Dec-14 00:00N 39°13' W 009°49'510.8
2017-Dec-13 23:30N 39°08' W 009°50'510.6
2017-Dec-13 23:00N 39°02' W 009°50'510.7
2017-Dec-13 22:30N 38°57' W 009°50'510.9
2017-Dec-13 22:00N 38°51' W 009°51'510.9
2017-Dec-13 21:30N 38°46' W 009°51'510.7
2017-Dec-13 21:00N 38°41' W 009°51'510.6
2017-Dec-13 20:30N 38°36' W 009°50'510.7
2017-Dec-13 20:00N 38°30' W 009°48'510.7
2017-Dec-13 19:30N 38°25' W 009°46'510.7
2017-Dec-13 19:00N 38°20' W 009°45'510.2
2017-Dec-13 18:30N 38°15' W 009°43'710.1
2017-Dec-13 17:49N 38°08' W 009°41'310.1
2017-Dec-13 17:30N 38°05' W 009°40'510.2
2017-Dec-13 16:59N 37°60' W 009°38'1010.4
2017-Dec-13 15:59N 37°50' W 009°36'510.6
2017-Dec-13 15:29N 37°45' W 009°34'70 9.5
2017-Dec-13 08:11N 36°42' W 008°56'510.2
2017-Dec-13 07:43N 36°40' W 008°51'16410.3
2017-Dec-12 15:48N 35°58' W 005°33'2 7.7
2017-Dec-12 15:30N 35°59' W 005°31'4 7.4
2017-Dec-12 14:57N 35°59' W 005°26'4 6.9
2017-Dec-12 14:26N 35°59' W 005°21'3 7.6
2017-Dec-12 14:00N 35°59' W 005°17'28 1.9
2017-Dec-11 22:54N 35°44' W 004°48'1 2.8
2017-Dec-11 22:28N 35°45' W 004°49'2 3.2
2017-Dec-11 21:58N 35°46' W 004°50'2 3.5
2017-Dec-11 21:27N 35°47' W 004°52'2 3.5
2017-Dec-11 20:55N 35°49' W 004°53'2 3.6
2017-Dec-11 20:30N 35°48' W 004°52'  
2017-Dec-07 10:34N 36°49' E 013°31'111.0
2017-Dec-07 10:30N 36°49' E 013°32'610.8
2017-Dec-07 09:58N 36°47' E 013°39'910.9
2017-Dec-07 09:09N 36°44' E 013°49'211.0
2017-Dec-07 08:59N 36°43' E 013°51'910.7
2017-Dec-07 08:10N 36°40' E 014°02'210.7
2017-Dec-07 08:00N 36°39' E 014°04'710.6
2017-Dec-07 07:19N 36°37' E 014°12'310.5
2017-Dec-07 07:00N 36°35' E 014°16'510.6
2017-Dec-07 06:30N 36°34' E 014°22'510.5
2017-Dec-07 06:00N 36°31' E 014°28'710.3
2017-Dec-07 05:19N 36°29' E 014°36'310.1
2017-Dec-07 04:59N 36°28' E 014°40'  
Track history (hours):
 
Tides and Currents Weather Stations Pressure Air Temp Water Temp Dewpoint Dewpoint Depression Visibility Wind Speed Wind Dir Waves Ship Positions

Emma Janneke

Last reported at 2017-Dec-14 01:27 UTC. Time now 2017-Dec-17 00:30 UTC.
Position N 39°28' W 009°45'.

Length 115 m; draft 4.8 m.

Type: Ship. MMSI: 236330000.

Date/timePositionNaut miles runAvg speedWind from/ knotsBaromVisibWave heightAir tempDewpointWater temp
2017-Dec-14 01:27N 39°28' W 009°45'510.7
2017-Dec-14 01:00N 39°24' W 009°46'510.8
2017-Dec-14 00:30N 39°18' W 009°48'510.9
2017-Dec-14 00:00N 39°13' W 009°49'510.8
2017-Dec-13 23:30N 39°08' W 009°50'510.6
2017-Dec-13 23:00N 39°02' W 009°50'510.7
2017-Dec-13 22:30N 38°57' W 009°50'510.9
2017-Dec-13 22:00N 38°51' W 009°51'510.9
2017-Dec-13 21:30N 38°46' W 009°51'510.7
2017-Dec-13 21:00N 38°41' W 009°51'510.6
2017-Dec-13 20:30N 38°36' W 009°50'510.7
2017-Dec-13 20:00N 38°30' W 009°48'510.7
2017-Dec-13 19:30N 38°25' W 009°46'510.7
2017-Dec-13 19:00N 38°20' W 009°45'510.2
2017-Dec-13 18:30N 38°15' W 009°43'710.1
2017-Dec-13 17:49N 38°08' W 009°41'310.1
2017-Dec-13 17:30N 38°05' W 009°40'510.2
2017-Dec-13 16:59N 37°60' W 009°38'1010.4
2017-Dec-13 15:59N 37°50' W 009°36'510.6
2017-Dec-13 15:29N 37°45' W 009°34'70 9.5
2017-Dec-13 08:11N 36°42' W 008°56'510.2
2017-Dec-13 07:43N 36°40' W 008°51'16410.3
2017-Dec-12 15:48N 35°58' W 005°33'2 7.7
2017-Dec-12 15:30N 35°59' W 005°31'4 7.4
2017-Dec-12 14:57N 35°59' W 005°26'4 6.9
2017-Dec-12 14:26N 35°59' W 005°21'3 7.6
2017-Dec-12 14:00N 35°59' W 005°17'28 1.9
2017-Dec-11 22:54N 35°44' W 004°48'1 2.8
2017-Dec-11 22:28N 35°45' W 004°49'2 3.2
2017-Dec-11 21:58N 35°46' W 004°50'2 3.5
2017-Dec-11 21:27N 35°47' W 004°52'2 3.5
2017-Dec-11 20:55N 35°49' W 004°53'2 3.6
2017-Dec-11 20:30N 35°48' W 004°52'  
2017-Dec-07 10:34N 36°49' E 013°31'111.0
2017-Dec-07 10:30N 36°49' E 013°32'610.8
2017-Dec-07 09:58N 36°47' E 013°39'910.9
2017-Dec-07 09:09N 36°44' E 013°49'211.0
2017-Dec-07 08:59N 36°43' E 013°51'910.7
2017-Dec-07 08:10N 36°40' E 014°02'210.7
2017-Dec-07 08:00N 36°39' E 014°04'710.6
2017-Dec-07 07:19N 36°37' E 014°12'310.5
2017-Dec-07 07:00N 36°35' E 014°16'510.6
2017-Dec-07 06:30N 36°34' E 014°22'510.5
2017-Dec-07 06:00N 36°31' E 014°28'710.3
2017-Dec-07 05:19N 36°29' E 014°36'310.1
2017-Dec-07 04:59N 36°28' E 014°40'  

Dump ship's entire track history